createdAt,value
2018-05-26T00:00:12.694Z,15.90
2018-05-26T00:01:15.984Z,15.90
2018-05-26T00:02:19.205Z,15.90
2018-05-26T00:03:22.434Z,15.90
2018-05-26T00:04:25.723Z,15.90
2018-05-26T00:05:29.685Z,15.80
2018-05-26T00:06:32.925Z,15.80
2018-05-26T00:07:36.130Z,15.80
2018-05-26T00:08:39.343Z,15.80
2018-05-26T00:09:42.550Z,15.80
2018-05-26T00:10:45.785Z,15.80
2018-05-26T00:11:49.046Z,15.90
2018-05-26T00:12:52.297Z,15.90
2018-05-26T00:13:56.277Z,15.90
2018-05-26T00:14:59.530Z,15.90
2018-05-26T00:16:02.766Z,15.90
2018-05-26T00:17:06.770Z,15.80
2018-05-26T00:18:09.973Z,15.80
2018-05-26T00:19:13.192Z,15.80
2018-05-26T00:20:16.421Z,15.80
2018-05-26T00:21:19.671Z,15.80
2018-05-26T00:22:23.646Z,15.80
2018-05-26T00:23:26.865Z,15.80
2018-05-26T00:24:30.073Z,15.80
2018-05-26T00:25:33.318Z,15.70
2018-05-26T00:26:38.019Z,15.70
2018-05-26T00:27:41.244Z,15.70
2018-05-26T00:28:44.607Z,15.70
2018-05-26T00:29:48.583Z,15.70
2018-05-26T00:30:51.800Z,15.70
2018-05-26T00:31:55.052Z,15.70
2018-05-26T00:32:58.272Z,15.70
2018-05-26T00:34:01.483Z,15.60
2018-05-26T00:35:04.690Z,15.60
2018-05-26T00:36:08.708Z,15.60
2018-05-26T00:37:12.684Z,15.60
2018-05-26T00:38:15.879Z,15.60
2018-05-26T00:39:20.115Z,15.60
2018-05-26T00:40:24.113Z,15.60
2018-05-26T00:41:28.288Z,15.50
2018-05-26T00:42:31.765Z,15.50
2018-05-26T00:43:34.953Z,15.50
2018-05-26T00:44:38.255Z,15.50
2018-05-26T00:45:41.509Z,15.40
2018-05-26T00:46:44.701Z,15.40
2018-05-26T00:47:47.906Z,15.50
2018-05-26T00:48:51.912Z,15.50
2018-05-26T00:49:55.936Z,15.50
2018-05-26T00:50:59.189Z,15.50
2018-05-26T00:52:02.627Z,15.60
2018-05-26T00:53:05.861Z,15.60
2018-05-26T00:54:09.828Z,15.50
2018-05-26T00:55:13.037Z,15.50
2018-05-26T00:56:16.247Z,15.50
2018-05-26T00:57:19.537Z,15.60
2018-05-26T00:58:23.485Z,15.50
2018-05-26T00:59:26.905Z,15.50
2018-05-26T01:00:30.891Z,15.50
2018-05-26T01:01:34.130Z,15.50
2018-05-26T01:02:37.343Z,15.50
2018-05-26T01:03:42.059Z,15.40
2018-05-26T01:04:45.370Z,15.40
2018-05-26T01:05:49.369Z,15.40
2018-05-26T01:06:53.335Z,15.40
2018-05-26T01:07:56.579Z,15.40
2018-05-26T01:08:59.784Z,15.40
2018-05-26T01:10:03.002Z,15.40
2018-05-26T01:11:06.218Z,15.40
2018-05-26T01:12:09.465Z,15.40
2018-05-26T01:13:13.495Z,15.30
2018-05-26T01:14:17.514Z,15.30
2018-05-26T01:15:20.746Z,15.30
2018-05-26T01:16:23.980Z,15.30
2018-05-26T01:17:27.188Z,15.40
2018-05-26T01:18:30.393Z,15.40
2018-05-26T01:19:33.624Z,15.40
2018-05-26T01:20:36.841Z,15.40
2018-05-26T01:21:40.097Z,15.40
2018-05-26T01:22:43.351Z,15.40
2018-05-26T01:23:47.352Z,15.30
2018-05-26T01:24:51.331Z,15.20
2018-05-26T01:25:54.562Z,15.30
2018-05-26T01:26:58.561Z,15.30
2018-05-26T01:28:02.557Z,15.30
2018-05-26T01:29:05.779Z,15.30
2018-05-26T01:30:08.984Z,15.30
2018-05-26T01:31:12.990Z,15.30
2018-05-26T01:32:16.977Z,15.30
2018-05-26T01:33:20.212Z,15.30
2018-05-26T01:34:23.427Z,15.30
2018-05-26T01:35:26.661Z,15.30
2018-05-26T01:36:30.611Z,15.40
2018-05-26T01:37:34.711Z,15.30
2018-05-26T01:38:37.916Z,15.30
2018-05-26T01:39:41.144Z,15.20
2018-05-26T01:40:44.408Z,15.20
2018-05-26T01:41:48.387Z,15.20
2018-05-26T01:42:51.614Z,15.20
2018-05-26T01:43:54.821Z,15.20
2018-05-26T01:44:58.039Z,15.20
2018-05-26T01:46:02.293Z,15.10
2018-05-26T01:47:05.911Z,15.10
2018-05-26T01:48:09.086Z,15.10
2018-05-26T01:49:13.843Z,15.10
2018-05-26T01:50:17.831Z,15.20
2018-05-26T01:51:21.055Z,15.20
2018-05-26T01:52:24.274Z,15.10
2018-05-26T01:53:27.479Z,15.00
2018-05-26T01:54:30.701Z,15.10
2018-05-26T01:55:33.942Z,15.00
2018-05-26T01:56:37.971Z,14.90
2018-05-26T01:57:41.186Z,14.90
2018-05-26T01:58:44.403Z,15.00
2018-05-26T01:59:47.690Z,15.00
2018-05-26T02:00:50.904Z,15.00
2018-05-26T02:01:54.867Z,15.00
2018-05-26T02:02:58.088Z,15.10
2018-05-26T02:04:01.290Z,15.00
2018-05-26T02:05:04.503Z,15.00
2018-05-26T02:06:07.740Z,15.00
2018-05-26T02:07:11.716Z,15.00
2018-05-26T02:08:15.713Z,15.00
2018-05-26T02:09:19.691Z,15.00
2018-05-26T02:10:24.439Z,15.00
2018-05-26T02:11:28.493Z,15.00
2018-05-26T02:12:31.706Z,15.00
2018-05-26T02:13:34.924Z,15.00
2018-05-26T02:14:38.151Z,14.90
2018-05-26T02:15:42.145Z,15.00
2018-05-26T02:16:45.364Z,14.90
2018-05-26T02:17:49.357Z,15.00
2018-05-26T02:18:53.389Z,15.00
2018-05-26T02:19:56.673Z,15.00
2018-05-26T02:20:59.952Z,15.00
2018-05-26T02:22:03.950Z,15.00
2018-05-26T02:23:07.933Z,15.00
2018-05-26T02:24:11.902Z,15.00
2018-05-26T02:25:15.146Z,15.00
2018-05-26T02:26:18.430Z,15.00
2018-05-26T02:27:21.675Z,15.00
2018-05-26T02:28:24.890Z,15.00
2018-05-26T02:29:28.108Z,15.00
2018-05-26T02:30:31.331Z,14.90
2018-05-26T02:31:35.348Z,14.80
2018-05-26T02:32:39.339Z,14.80
2018-05-26T02:33:43.350Z,14.70
2018-05-26T02:34:47.326Z,14.70
2018-05-26T02:35:51.326Z,14.70
2018-05-26T02:36:54.548Z,14.70
2018-05-26T02:37:57.823Z,14.80
2018-05-26T02:39:01.060Z,14.80
2018-05-26T02:40:05.046Z,14.80
2018-05-26T02:41:08.263Z,14.90
2018-05-26T02:42:12.282Z,14.80
2018-05-26T02:43:16.264Z,14.90
2018-05-26T02:44:20.242Z,14.90
2018-05-26T02:45:23.617Z,14.80
2018-05-26T02:46:26.829Z,14.90
2018-05-26T02:47:30.859Z,14.90
2018-05-26T02:48:34.096Z,14.80
2018-05-26T02:49:37.303Z,14.90
2018-05-26T02:50:41.290Z,14.80
2018-05-26T02:51:44.512Z,14.80
2018-05-26T02:52:47.740Z,14.70
2018-05-26T02:53:50.973Z,14.70
2018-05-26T02:54:54.191Z,14.70
2018-05-26T02:55:57.410Z,14.60
2018-05-26T02:57:01.422Z,14.70
2018-05-26T02:58:05.404Z,14.70
2018-05-26T02:59:08.718Z,14.60
2018-05-26T03:00:12.006Z,14.60
2018-05-26T03:01:15.995Z,14.60
2018-05-26T03:02:19.965Z,14.60
2018-05-26T03:03:23.214Z,14.60
2018-05-26T03:04:32.183Z,14.70
2018-05-26T03:05:41.767Z,14.70
2018-05-26T03:06:50.726Z,14.70
2018-05-26T03:07:59.574Z,14.80
2018-05-26T03:09:08.459Z,14.70
2018-05-26T03:10:17.247Z,14.70
2018-05-26T03:11:26.163Z,14.70
2018-05-26T03:12:35.086Z,14.70
2018-05-26T03:13:44.012Z,14.60
2018-05-26T03:14:46.762Z,14.60
2018-05-26T03:16:06.803Z,14.60
2018-05-26T03:17:10.962Z,14.60
2018-05-26T03:18:14.970Z,14.50
2018-05-26T03:19:18.201Z,14.50
2018-05-26T03:20:21.421Z,14.50
2018-05-26T03:21:24.766Z,14.60
2018-05-26T03:22:28.003Z,14.60
2018-05-26T03:23:31.271Z,14.60
2018-05-26T03:24:34.501Z,14.50
2018-05-26T03:25:37.736Z,14.50
2018-05-26T03:26:40.961Z,14.50
2018-05-26T03:27:44.963Z,14.50
2018-05-26T03:28:48.186Z,14.50
2018-05-26T03:29:51.420Z,14.50
2018-05-26T03:30:55.414Z,14.50
2018-05-26T03:31:59.418Z,14.50
2018-05-26T03:33:03.386Z,14.50
2018-05-26T03:34:08.140Z,14.40
2018-05-26T03:35:12.144Z,14.50
2018-05-26T03:36:16.233Z,14.40
2018-05-26T03:37:19.403Z,14.40
2018-05-26T03:38:22.630Z,14.40
2018-05-26T03:39:25.926Z,14.40
2018-05-26T03:40:29.144Z,14.50
2018-05-26T03:41:33.166Z,14.50
2018-05-26T03:42:37.160Z,14.60
2018-05-26T03:43:40.392Z,14.50
2018-05-26T03:44:43.621Z,14.60
2018-05-26T03:45:46.845Z,14.60
2018-05-26T03:46:50.074Z,14.60
2018-05-26T03:47:53.300Z,14.60
2018-05-26T03:48:56.561Z,14.50
2018-05-26T03:50:00.562Z,14.40
2018-05-26T03:51:03.799Z,14.40
2018-05-26T03:52:07.014Z,14.50
2018-05-26T03:53:11.011Z,14.40
2018-05-26T03:54:14.250Z,14.40
2018-05-26T03:55:38.330Z,14.40
2018-05-26T03:56:53.408Z,14.50
2018-05-26T03:58:08.532Z,14.50
2018-05-26T03:59:19.502Z,14.50
2018-05-26T04:00:22.712Z,14.50
2018-05-26T04:01:25.959Z,14.40
2018-05-26T04:02:29.174Z,14.40
2018-05-26T04:03:32.408Z,14.40
2018-05-26T04:04:36.390Z,14.30
2018-05-26T04:05:39.641Z,14.30
2018-05-26T04:06:42.854Z,14.40
2018-05-26T04:07:46.084Z,14.40
2018-05-26T04:08:49.877Z,14.50
2018-05-26T04:09:53.139Z,14.50
2018-05-26T04:10:57.118Z,14.50
2018-05-26T04:12:01.124Z,14.60
2018-05-26T04:13:05.131Z,14.50
2018-05-26T04:14:09.146Z,14.50
2018-05-26T04:15:13.123Z,14.60
2018-05-26T04:16:17.123Z,14.60
2018-05-26T04:17:21.164Z,14.60
2018-05-26T04:18:24.384Z,14.60
2018-05-26T04:19:27.667Z,14.60
2018-05-26T04:20:30.938Z,14.50
2018-05-26T04:21:34.160Z,14.60
2018-05-26T04:22:38.171Z,14.60
2018-05-26T04:23:42.158Z,14.60
2018-05-26T04:24:45.446Z,14.60
2018-05-26T04:25:50.163Z,14.60
2018-05-26T04:26:53.382Z,14.60
2018-05-26T04:27:56.626Z,14.70
2018-05-26T04:28:59.846Z,14.70
2018-05-26T04:30:03.060Z,14.70
2018-05-26T04:31:06.316Z,14.80
2018-05-26T04:32:09.510Z,14.80
2018-05-26T04:33:12.735Z,14.80
2018-05-26T04:34:16.009Z,14.90
2018-05-26T04:35:19.242Z,14.90
2018-05-26T04:36:22.551Z,14.90
2018-05-26T04:37:25.786Z,14.80
2018-05-26T04:38:29.828Z,14.70
2018-05-26T04:39:33.073Z,14.70
2018-05-26T04:40:36.274Z,14.70
2018-05-26T04:41:39.533Z,14.80
2018-05-26T04:42:43.531Z,14.80
2018-05-26T04:43:47.654Z,14.90
2018-05-26T04:44:50.944Z,14.90
2018-05-26T04:45:54.212Z,14.90
2018-05-26T04:46:58.233Z,14.90
2018-05-26T04:48:01.461Z,14.90
2018-05-26T04:49:04.708Z,14.90
2018-05-26T04:50:07.996Z,14.80
2018-05-26T04:51:11.222Z,14.80
2018-05-26T04:52:14.449Z,14.80
2018-05-26T04:53:17.712Z,14.80
2018-05-26T04:54:21.092Z,14.80
2018-05-26T04:55:24.298Z,14.90
2018-05-26T04:56:27.551Z,14.90
2018-05-26T04:57:31.584Z,14.90
2018-05-26T04:58:34.816Z,14.90
2018-05-26T04:59:39.541Z,15.00
2018-05-26T05:00:44.271Z,15.00
2018-05-26T05:01:47.492Z,15.00
2018-05-26T05:02:50.727Z,15.00
2018-05-26T05:03:54.048Z,15.00
2018-05-26T05:04:57.282Z,15.00
2018-05-26T05:06:00.521Z,15.00
2018-05-26T05:07:03.773Z,15.00
2018-05-26T05:08:07.759Z,15.20
2018-05-26T05:09:11.080Z,15.20
2018-05-26T05:10:14.318Z,15.20
2018-05-26T05:11:17.567Z,15.20
2018-05-26T05:12:20.843Z,15.20
2018-05-26T05:13:24.062Z,15.20
2018-05-26T05:14:27.299Z,15.20
2018-05-26T05:15:30.527Z,15.20
2018-05-26T05:16:34.508Z,15.30
2018-05-26T05:17:37.738Z,15.30
2018-05-26T05:18:41.768Z,15.40
2018-05-26T05:19:44.999Z,15.40
2018-05-26T05:20:48.225Z,15.50
2018-05-26T05:21:51.445Z,15.40
2018-05-26T05:22:54.673Z,15.50
2018-05-26T05:23:58.698Z,15.50
2018-05-26T05:25:02.712Z,15.50
2018-05-26T05:26:05.953Z,15.40
2018-05-26T05:27:09.199Z,15.50
2018-05-26T05:28:12.415Z,15.50
2018-05-26T05:29:15.635Z,15.50
2018-05-26T05:30:18.878Z,15.50
2018-05-26T05:31:22.099Z,15.50
2018-05-26T05:32:25.587Z,15.60
2018-05-26T05:33:28.802Z,15.60
2018-05-26T05:34:32.038Z,15.60
2018-05-26T05:35:35.361Z,15.60
2018-05-26T05:36:38.623Z,15.60
2018-05-26T05:37:41.866Z,15.60
2018-05-26T05:38:45.097Z,15.70
2018-05-26T05:39:48.331Z,15.70
2018-05-26T05:40:53.063Z,15.70
2018-05-26T05:41:57.055Z,15.80
2018-05-26T05:43:01.117Z,15.80
2018-05-26T05:44:04.515Z,15.80
2018-05-26T05:45:07.959Z,15.80
2018-05-26T05:46:11.313Z,15.90
2018-05-26T05:47:14.507Z,15.90
2018-05-26T05:48:18.508Z,16.00
2018-05-26T05:49:22.508Z,16.00
2018-05-26T05:50:25.750Z,15.90
2018-05-26T05:51:28.970Z,16.00
2018-05-26T05:52:32.990Z,16.00
2018-05-26T05:53:36.227Z,16.00
2018-05-26T05:54:39.470Z,16.10
2018-05-26T05:55:42.680Z,16.10
2018-05-26T05:56:45.919Z,16.10
2018-05-26T05:57:49.883Z,16.10
2018-05-26T05:58:53.195Z,16.10
2018-05-26T05:59:57.200Z,16.10
2018-05-26T06:01:01.236Z,16.10
2018-05-26T06:02:04.463Z,16.10
2018-05-26T06:03:07.669Z,16.20
2018-05-26T06:04:11.685Z,16.30
2018-05-26T06:05:14.910Z,16.20
2018-05-26T06:06:18.135Z,16.30
2018-05-26T06:07:22.118Z,16.30
2018-05-26T06:08:26.114Z,16.40
2018-05-26T06:09:29.331Z,16.30
2018-05-26T06:10:32.573Z,16.40
2018-05-26T06:11:36.565Z,16.40
2018-05-26T06:12:39.781Z,16.50
2018-05-26T06:13:43.771Z,16.50
2018-05-26T06:14:47.767Z,16.50
2018-05-26T06:15:51.783Z,16.50
2018-05-26T06:16:54.987Z,16.50
2018-05-26T06:17:58.234Z,16.50
2018-05-26T06:19:02.234Z,16.50
2018-05-26T06:20:06.258Z,16.60
2018-05-26T06:21:10.231Z,16.60
2018-05-26T06:22:14.223Z,16.60
2018-05-26T06:23:17.499Z,16.60
2018-05-26T06:24:22.243Z,16.60
2018-05-26T06:25:26.270Z,16.70
2018-05-26T06:26:29.572Z,16.70
2018-05-26T06:27:32.712Z,16.70
2018-05-26T06:28:36.734Z,16.70
2018-05-26T06:29:39.991Z,16.60
2018-05-26T06:30:44.013Z,16.70
2018-05-26T06:31:48.040Z,16.70
2018-05-26T06:32:51.995Z,16.70
2018-05-26T06:33:56.098Z,16.70
2018-05-26T06:34:59.345Z,16.70
2018-05-26T06:36:02.586Z,16.70
2018-05-26T06:37:05.834Z,16.70
2018-05-26T06:38:09.035Z,16.70
2018-05-26T06:39:13.035Z,16.70
2018-05-26T06:40:17.033Z,16.70
2018-05-26T06:41:21.016Z,16.70
2018-05-26T06:42:25.035Z,16.70
2018-05-26T06:43:29.031Z,16.70
2018-05-26T06:44:33.023Z,16.70
2018-05-26T06:45:36.270Z,16.70
2018-05-26T06:46:39.506Z,16.70
2018-05-26T06:47:43.503Z,16.60
2018-05-26T06:48:47.503Z,16.70
2018-05-26T06:49:51.493Z,16.60
2018-05-26T06:50:54.721Z,16.60
2018-05-26T06:51:57.935Z,16.60
2018-05-26T06:53:01.175Z,16.60
2018-05-26T06:54:04.430Z,16.50
2018-05-26T06:55:08.443Z,16.60
2018-05-26T06:56:11.773Z,16.60
2018-05-26T06:57:15.002Z,16.60
2018-05-26T06:58:19.008Z,16.50
2018-05-26T06:59:23.226Z,16.60
2018-05-26T07:00:26.482Z,16.60
2018-05-26T07:01:31.511Z,16.80
2018-05-26T07:02:34.747Z,16.70
2018-05-26T07:03:38.024Z,16.80
2018-05-26T07:04:41.227Z,16.80
2018-05-26T07:05:44.495Z,16.80
2018-05-26T07:06:47.714Z,16.80
2018-05-26T07:07:50.943Z,16.80
2018-05-26T07:08:54.163Z,16.80
2018-05-26T07:09:57.520Z,16.80
2018-05-26T07:11:00.738Z,16.80
2018-05-26T07:12:05.754Z,16.80
2018-05-26T07:13:08.981Z,16.80
2018-05-26T07:14:13.014Z,16.90
2018-05-26T07:15:16.277Z,16.90
2018-05-26T07:16:20.240Z,17.00
2018-05-26T07:17:23.555Z,16.90
2018-05-26T07:18:26.790Z,17.00
2018-05-26T07:19:30.014Z,17.10
2018-05-26T07:20:34.049Z,17.00
2018-05-26T07:21:37.263Z,17.00
2018-05-26T07:22:40.929Z,17.10
2018-05-26T07:23:45.342Z,17.00
2018-05-26T07:24:49.349Z,17.00
2018-05-26T07:25:53.161Z,17.10
2018-05-26T07:26:56.908Z,17.20
2018-05-26T07:28:00.172Z,17.30
2018-05-26T07:29:03.441Z,17.30
2018-05-26T07:30:06.641Z,17.30
2018-05-26T07:31:10.643Z,17.40
2018-05-26T07:32:14.632Z,17.40
2018-05-26T07:33:18.734Z,17.40
2018-05-26T07:34:22.107Z,17.30
2018-05-26T07:35:25.331Z,17.40
2018-05-26T07:36:28.621Z,17.40
2018-05-26T07:37:31.883Z,17.50
2018-05-26T07:38:36.612Z,17.60
2018-05-26T07:39:39.885Z,17.60
2018-05-26T07:40:43.890Z,17.70
2018-05-26T07:41:47.884Z,17.60
2018-05-26T07:42:51.233Z,17.60
2018-05-26T07:43:54.487Z,17.50
2018-05-26T07:44:58.231Z,17.60
2018-05-26T07:46:01.454Z,17.70
2018-05-26T07:47:04.683Z,17.70
2018-05-26T07:48:07.963Z,17.70
2018-05-26T07:49:11.183Z,17.70
2018-05-26T07:50:15.184Z,17.80
2018-05-26T07:51:18.451Z,17.80
2018-05-26T07:52:21.691Z,17.80
2018-05-26T07:53:24.970Z,17.80
2018-05-26T07:54:28.223Z,17.90
2018-05-26T07:55:31.475Z,17.90
2018-05-26T07:56:34.737Z,17.90
2018-05-26T07:57:37.991Z,18.00
2018-05-26T07:58:41.204Z,17.90
2018-05-26T07:59:44.437Z,17.90
2018-05-26T08:00:48.438Z,17.80
2018-05-26T08:01:52.456Z,17.90
2018-05-26T08:02:55.767Z,17.90
2018-05-26T08:03:59.211Z,17.90
2018-05-26T08:05:03.188Z,17.90
2018-05-26T08:06:06.552Z,17.90
2018-05-26T08:07:09.783Z,17.90
2018-05-26T08:08:13.021Z,18.00
2018-05-26T08:09:16.253Z,17.90
2018-05-26T08:10:19.497Z,17.90
2018-05-26T08:11:22.732Z,18.00
2018-05-26T08:12:25.992Z,18.10
2018-05-26T08:13:29.996Z,18.10
2018-05-26T08:14:33.996Z,18.10
2018-05-26T08:15:37.999Z,18.10
2018-05-26T08:16:41.317Z,18.10
2018-05-26T08:17:44.579Z,18.20
2018-05-26T08:18:48.602Z,18.20
2018-05-26T08:19:51.888Z,18.20
2018-05-26T08:20:55.103Z,18.30
2018-05-26T08:21:58.326Z,18.30
2018-05-26T08:23:01.631Z,18.30
2018-05-26T08:24:04.948Z,18.30
2018-05-26T08:25:08.165Z,18.30
2018-05-26T08:26:12.153Z,18.30
2018-05-26T08:27:15.490Z,18.30
2018-05-26T08:28:18.684Z,18.30
2018-05-26T08:29:21.913Z,18.30
2018-05-26T08:30:25.937Z,18.40
2018-05-26T08:31:29.941Z,18.40
2018-05-26T08:32:33.253Z,18.40
2018-05-26T08:33:36.513Z,18.40
2018-05-26T08:34:39.750Z,18.30
2018-05-26T08:35:43.017Z,18.30
2018-05-26T08:36:47.017Z,18.40
2018-05-26T08:37:50.228Z,18.30
2018-05-26T08:38:54.249Z,18.40
2018-05-26T08:39:57.476Z,18.40
2018-05-26T08:41:00.697Z,18.50
2018-05-26T08:42:04.725Z,18.50
2018-05-26T08:43:08.021Z,18.50
2018-05-26T08:44:11.357Z,18.50
2018-05-26T08:45:14.629Z,18.50
2018-05-26T08:46:17.903Z,18.60
2018-05-26T08:47:21.142Z,18.60
2018-05-26T08:48:24.448Z,18.60
2018-05-26T08:49:27.708Z,18.70
2018-05-26T08:50:31.871Z,18.70
2018-05-26T08:51:35.089Z,18.70
2018-05-26T08:52:38.322Z,18.70
2018-05-26T08:53:41.567Z,18.70
2018-05-26T08:54:44.852Z,18.80
2018-05-26T08:55:48.084Z,18.80
2018-05-26T08:56:52.090Z,18.90
2018-05-26T08:57:55.307Z,18.90
2018-05-26T08:58:58.567Z,18.90
2018-05-26T09:00:02.587Z,19.00
2018-05-26T09:01:05.844Z,19.00
2018-05-26T09:02:09.064Z,19.10
2018-05-26T09:03:12.303Z,19.10
2018-05-26T09:04:15.562Z,19.10
2018-05-26T09:05:18.788Z,19.20
2018-05-26T09:06:22.784Z,19.20
2018-05-26T09:07:26.059Z,19.20
2018-05-26T09:08:29.270Z,19.20
2018-05-26T09:09:32.510Z,19.20
2018-05-26T09:10:35.757Z,19.20
2018-05-26T09:11:38.957Z,19.40
2018-05-26T09:12:42.186Z,19.40
2018-05-26T09:13:46.206Z,19.30
2018-05-26T09:14:49.427Z,19.30
2018-05-26T09:15:52.659Z,19.30
2018-05-26T09:16:56.651Z,19.40
2018-05-26T09:18:00.646Z,19.50
2018-05-26T09:19:04.708Z,19.50
2018-05-26T09:20:07.923Z,19.50
2018-05-26T09:21:11.198Z,19.50
2018-05-26T09:22:14.442Z,19.60
2018-05-26T09:23:17.703Z,19.70
2018-05-26T09:24:20.940Z,19.80
2018-05-26T09:25:25.005Z,19.80
2018-05-26T09:26:28.181Z,19.80
2018-05-26T09:27:31.444Z,19.90
2018-05-26T09:28:35.428Z,20.00
2018-05-26T09:29:39.453Z,20.10
2018-05-26T09:30:42.698Z,20.00
2018-05-26T09:31:45.943Z,20.10
2018-05-26T09:32:49.191Z,20.10
2018-05-26T09:33:53.197Z,20.30
2018-05-26T09:34:57.180Z,20.40
2018-05-26T09:36:01.201Z,20.40
2018-05-26T09:37:05.206Z,20.50
2018-05-26T09:38:08.424Z,20.50
2018-05-26T09:39:11.676Z,20.50
2018-05-26T09:40:14.922Z,20.60
2018-05-26T09:41:18.122Z,20.60
2018-05-26T09:42:22.132Z,20.70
2018-05-26T09:43:25.430Z,20.70
2018-05-26T09:44:28.628Z,20.70
2018-05-26T09:45:31.865Z,20.80
2018-05-26T09:46:35.078Z,20.70
2018-05-26T09:47:38.300Z,20.80
2018-05-26T09:48:41.508Z,20.80
2018-05-26T09:49:44.808Z,20.90
2018-05-26T09:50:48.818Z,21.00
2018-05-26T09:51:52.077Z,20.90
2018-05-26T09:52:55.275Z,21.00
2018-05-26T09:53:58.620Z,21.00
2018-05-26T09:55:01.870Z,21.00
2018-05-26T09:56:05.170Z,21.00
2018-05-26T09:57:09.112Z,21.20
2018-05-26T09:58:13.101Z,21.20
2018-05-26T09:59:16.450Z,21.10
2018-05-26T10:00:19.683Z,21.20
2018-05-26T10:01:24.503Z,21.20
2018-05-26T10:02:28.503Z,21.20
2018-05-26T10:03:32.516Z,21.30
2018-05-26T10:04:36.520Z,21.40
2018-05-26T10:05:39.751Z,21.30
2018-05-26T10:06:42.979Z,21.40
2018-05-26T10:07:46.972Z,21.50
2018-05-26T10:08:50.995Z,21.60
2018-05-26T10:09:55.044Z,21.60
2018-05-26T10:10:58.236Z,21.60
2018-05-26T10:12:01.534Z,21.60
2018-05-26T10:13:04.784Z,21.60
2018-05-26T10:14:08.008Z,21.60
2018-05-26T10:15:12.020Z,21.60
2018-05-26T10:16:16.003Z,21.60
2018-05-26T10:17:19.254Z,21.60
2018-05-26T10:18:22.473Z,21.60
2018-05-26T10:19:26.473Z,21.60
2018-05-26T10:20:30.488Z,21.60
2018-05-26T10:21:34.496Z,21.60
2018-05-26T10:22:37.736Z,21.60
2018-05-26T10:23:40.955Z,21.60
2018-05-26T10:24:44.183Z,21.50
2018-05-26T10:25:47.414Z,21.50
2018-05-26T10:26:51.421Z,21.60
2018-05-26T10:27:55.437Z,21.70
2018-05-26T10:28:58.655Z,21.70
2018-05-26T10:30:01.931Z,21.60
2018-05-26T10:31:05.107Z,21.70
2018-05-26T10:32:08.329Z,21.70
2018-05-26T10:33:11.613Z,21.70
2018-05-26T10:34:14.852Z,21.80
2018-05-26T10:35:18.057Z,21.80
2018-05-26T10:36:21.342Z,21.80
2018-05-26T10:37:24.544Z,21.90
2018-05-26T10:38:27.787Z,22.00
2018-05-26T10:39:31.027Z,22.10
2018-05-26T10:40:35.006Z,22.10
2018-05-26T10:41:38.228Z,22.00
2018-05-26T10:42:41.461Z,22.10
2018-05-26T10:43:44.678Z,22.10
2018-05-26T10:44:48.658Z,22.10
2018-05-26T10:46:04.591Z,22.20
2018-05-26T10:47:07.871Z,22.20
2018-05-26T10:48:11.837Z,22.30
2018-05-26T10:49:15.839Z,22.40
2018-05-26T10:50:19.830Z,22.50
2018-05-26T10:51:23.631Z,22.50
2018-05-26T10:52:27.633Z,22.50
2018-05-26T10:53:31.637Z,22.60
2018-05-26T10:54:35.629Z,22.60
2018-05-26T10:55:39.624Z,22.70
2018-05-26T10:56:42.939Z,22.70
2018-05-26T10:57:46.189Z,22.70
2018-05-26T10:58:49.524Z,22.70
2018-05-26T10:59:52.717Z,22.70
2018-05-26T11:00:55.967Z,22.70
2018-05-26T11:01:59.186Z,22.70
2018-05-26T11:03:02.414Z,22.80
2018-05-26T11:04:06.477Z,22.80
2018-05-26T11:05:09.715Z,22.70
2018-05-26T11:06:13.753Z,22.90
2018-05-26T11:07:17.007Z,22.90
2018-05-26T11:08:21.011Z,23.00
2018-05-26T11:09:24.259Z,23.00
2018-05-26T11:10:27.482Z,23.00
2018-05-26T11:11:30.716Z,23.00
2018-05-26T11:12:33.965Z,23.00
2018-05-26T11:13:37.226Z,23.10
2018-05-26T11:14:40.566Z,23.10
2018-05-26T11:15:43.859Z,23.30
2018-05-26T11:16:47.090Z,23.30
2018-05-26T11:17:50.491Z,23.40
2018-05-26T11:18:53.641Z,23.40
2018-05-26T11:19:56.831Z,23.50
2018-05-26T11:21:00.067Z,23.50
2018-05-26T11:22:03.506Z,23.60
2018-05-26T11:23:06.728Z,23.60
2018-05-26T11:24:10.061Z,23.70
2018-05-26T11:25:14.076Z,23.90
2018-05-26T11:26:17.442Z,23.80
2018-05-26T11:27:20.628Z,23.90
2018-05-26T11:28:23.864Z,23.80
2018-05-26T11:29:27.089Z,23.70
2018-05-26T11:30:31.062Z,23.70
2018-05-26T11:31:34.293Z,23.70
2018-05-26T11:32:37.555Z,23.70
2018-05-26T11:33:41.583Z,23.70
2018-05-26T11:34:44.842Z,23.70
2018-05-26T11:35:48.824Z,23.70
2018-05-26T11:36:52.820Z,23.60
2018-05-26T11:37:56.060Z,23.50
2018-05-26T11:38:59.284Z,23.60
2018-05-26T11:40:02.592Z,23.70
2018-05-26T11:41:06.615Z,23.70
2018-05-26T11:42:09.837Z,23.60
2018-05-26T11:43:13.058Z,23.60
2018-05-26T11:44:16.286Z,23.60
2018-05-26T11:45:19.521Z,23.60
2018-05-26T11:46:23.494Z,23.40
2018-05-26T11:47:26.736Z,23.40
2018-05-26T11:48:29.976Z,23.40
2018-05-26T11:49:33.985Z,23.50
2018-05-26T11:50:37.992Z,23.50
2018-05-26T11:51:41.167Z,23.50
2018-05-26T11:52:45.163Z,23.50
2018-05-26T11:53:49.156Z,23.50
2018-05-26T11:54:52.387Z,23.50
2018-05-26T11:55:55.604Z,23.50
2018-05-26T11:56:58.832Z,23.60
2018-05-26T11:58:02.118Z,23.60
2018-05-26T11:59:05.369Z,23.60
2018-05-26T12:00:09.400Z,23.60
2018-05-26T12:01:12.622Z,23.60
2018-05-26T12:02:15.887Z,23.60
2018-05-26T12:03:19.967Z,23.50
2018-05-26T12:04:23.936Z,23.50
2018-05-26T12:05:27.947Z,23.50
2018-05-26T12:06:31.941Z,23.50
2018-05-26T12:07:35.161Z,23.50
2018-05-26T12:08:38.377Z,23.50
2018-05-26T12:09:41.659Z,23.50
2018-05-26T12:10:44.951Z,23.50
2018-05-26T12:11:48.115Z,23.60
2018-05-26T12:12:51.366Z,23.70
2018-05-26T12:13:54.572Z,23.80
2018-05-26T12:14:57.831Z,23.70
2018-05-26T12:16:01.790Z,23.90
2018-05-26T12:17:05.042Z,23.90
2018-05-26T12:18:08.297Z,24.00
2018-05-26T12:19:12.242Z,24.30
2018-05-26T12:20:15.508Z,24.20
2018-05-26T12:21:18.728Z,24.40
2018-05-26T12:22:21.951Z,24.40
2018-05-26T12:23:25.159Z,24.50
2018-05-26T12:24:28.440Z,24.50
2018-05-26T12:25:31.653Z,24.60
2018-05-26T12:26:34.883Z,24.70
2018-05-26T12:27:38.086Z,24.90
2018-05-26T12:28:41.308Z,25.00
2018-05-26T12:29:44.537Z,25.10
2018-05-26T12:30:47.768Z,25.20
2018-05-26T12:31:51.086Z,25.20
2018-05-26T12:32:55.076Z,25.50
2018-05-26T12:33:59.114Z,25.70
2018-05-26T12:35:02.273Z,25.70
2018-05-26T12:36:05.485Z,25.70
2018-05-26T12:37:08.716Z,25.70
2018-05-26T12:38:12.719Z,25.60
2018-05-26T12:39:16.684Z,25.50
2018-05-26T12:40:19.915Z,25.40
2018-05-26T12:41:24.151Z,25.30
2018-05-26T12:42:27.377Z,25.30
2018-05-26T12:43:30.645Z,25.30
2018-05-26T12:44:33.854Z,25.10
2018-05-26T12:45:37.071Z,25.00
2018-05-26T12:46:40.275Z,25.00
2018-05-26T12:47:43.510Z,25.00
2018-05-26T12:48:47.506Z,25.00
2018-05-26T12:49:50.741Z,24.90
2018-05-26T12:50:53.953Z,25.00
2018-05-26T12:51:57.179Z,25.00
2018-05-26T12:53:00.418Z,25.00
2018-05-26T12:54:03.630Z,25.00
2018-05-26T12:55:07.611Z,24.90
2018-05-26T12:56:10.849Z,24.90
2018-05-26T12:57:14.066Z,24.90
2018-05-26T12:58:17.287Z,24.90
2018-05-26T12:59:20.579Z,24.80
2018-05-26T13:00:23.782Z,24.90
2018-05-26T13:01:27.011Z,24.80
2018-05-26T13:02:31.766Z,24.60
2018-05-26T13:03:34.959Z,24.60
2018-05-26T13:04:38.172Z,24.60
2018-05-26T13:05:41.410Z,24.70
2018-05-26T13:06:44.625Z,24.80
2018-05-26T13:07:47.841Z,24.70
2018-05-26T13:08:51.152Z,24.80
2018-05-26T13:09:54.358Z,24.70
2018-05-26T13:10:57.602Z,24.80
2018-05-26T13:12:01.575Z,24.90
2018-05-26T13:13:04.789Z,24.90
2018-05-26T13:14:08.763Z,25.00
2018-05-26T13:15:11.966Z,25.00
2018-05-26T13:16:15.366Z,25.00
2018-05-26T13:17:19.362Z,25.00
2018-05-26T13:18:23.362Z,25.00
2018-05-26T13:19:27.337Z,25.00
2018-05-26T13:20:30.553Z,25.00
2018-05-26T13:21:33.758Z,25.00
2018-05-26T13:22:37.055Z,25.00
2018-05-26T13:23:40.307Z,25.00
2018-05-26T13:24:43.531Z,25.00
2018-05-26T13:25:46.738Z,25.00
2018-05-26T13:26:49.972Z,25.00
2018-05-26T13:27:53.227Z,24.90
2018-05-26T13:28:56.564Z,24.90
2018-05-26T13:29:59.746Z,25.00
2018-05-26T13:31:02.984Z,25.10
2018-05-26T13:32:06.214Z,25.30
2018-05-26T13:33:09.414Z,25.50
2018-05-26T13:34:12.674Z,25.80
2018-05-26T13:35:15.907Z,26.20
2018-05-26T13:36:19.859Z,26.80
2018-05-26T13:37:23.132Z,26.80
2018-05-26T13:38:26.382Z,27.10
2018-05-26T13:39:29.593Z,27.20